Time;durP1;ratioP1;P1;durP2;ratioP2;P2;SDS_P1;SDS_P2;PMS_P1;PMS_P2;Temp;Humidity;BMP_temperature;BMP_pressure;BME280_temperature;BME280_humidity;BME280_pressure;Samples;Min_cycle;Max_cycle;Signal;HPM_P1;HPM_P2
2021/01/31 00:00:42;;;;;;;28.75;26.95;;;;;;;;;;5073853;28;20211;-84
2021/01/31 00:03:10;;;;;;;28.48;26.40;;;;;;;;;;5074049;28;20215;-84
2021/01/31 00:05:38;;;;;;;28.20;26.15;;;;;;;;;;5074144;28;20685;-85
2021/01/31 00:08:06;;;;;;;27.60;25.52;;;;;;;;;;5073583;28;20231;-84
2021/01/31 00:10:33;;;;;;;27.10;25.30;;;;;;;;;;5073774;28;20192;-84
2021/01/31 00:13:01;;;;;;;27.58;25.65;;;;;;;;;;5074347;28;20595;-85
2021/01/31 00:15:30;;;;;;;28.10;26.10;;;;;;;;;;5073921;28;20585;-84
2021/01/31 00:17:57;;;;;;;27.25;25.35;;;;;;;;;;5074017;28;20553;-85
2021/01/31 00:20:25;;;;;;;27.40;25.40;;;;;;;;;;5073716;28;20203;-84
2021/01/31 00:22:56;;;;;;;26.23;24.50;;;;;;;;;;5073736;28;20256;-83
2021/01/31 00:25:23;;;;;;;28.13;26.08;;;;;;;;;;5073922;28;20230;-84
2021/01/31 00:27:50;;;;;;;26.38;24.60;;;;;;;;;;5073694;28;20191;-84
2021/01/31 00:30:21;;;;;;;28.20;25.98;;;;;;;;;;5073689;28;20236;-84
2021/01/31 00:32:49;;;;;;;27.27;25.30;;;;;;;;;;5073600;28;20290;-84
2021/01/31 00:35:18;;;;;;;27.05;24.90;;;;;;;;;;5073755;28;20192;-85
2021/01/31 00:37:45;;;;;;;26.80;24.90;;;;;;;;;;5073666;28;20210;-84
2021/01/31 00:40:13;;;;;;;27.02;25.05;;;;;;;;;;5073631;28;20211;-84
2021/01/31 00:42:40;;;;;;;26.90;25.00;;;;;;;;;;5055895;28;20226;-84
2021/01/31 00:45:08;;;;;;;28.38;26.33;;;;;;;;;;5072927;28;20234;-84
2021/01/31 00:47:35;;;;;;;26.70;24.85;;;;;;;;;;5073581;28;20184;-84
2021/01/31 00:50:02;;;;;;;27.05;25.08;;;;;;;;;;5073967;28;20532;-84
2021/01/31 00:52:29;;;;;;;29.27;27.02;;;;;;;;;;5057534;28;20199;-85
2021/01/31 00:54:56;;;;;;;26.33;24.42;;;;;;;;;;5077159;28;20211;-84
2021/01/31 00:57:24;;;;;;;27.42;25.33;;;;;;;;;;5077865;28;20192;-84
2021/01/31 00:59:51;;;;;;;26.95;25.02;;;;;;;;;;5077255;28;20645;-84
2021/01/31 01:02:20;;;;;;;25.85;23.95;;;;;;;;;;5077270;28;20192;-84
2021/01/31 01:04:47;;;;;;;28.02;25.92;;;;;;;;;;5076764;28;20211;-84
2021/01/31 01:07:14;;;;;;;25.98;24.13;;;;;;;;;;5076679;28;20184;-84
2021/01/31 01:09:41;;;;;;;28.17;25.92;;;;;;;;;;5059142;28;20324;-84
2021/01/31 01:12:12;;;;;;;26.77;24.80;;;;;;;;;;5077639;28;20203;-84
2021/01/31 01:14:40;;;;;;;26.38;24.48;;;;;;;;;;5076884;28;20274;-84
2021/01/31 01:17:07;;;;;;;26.92;25.02;;;;;;;;;;5077017;28;20190;-84
2021/01/31 01:19:34;;;;;;;27.70;25.55;;;;;;;;;;5076563;28;20214;-84
2021/01/31 01:22:01;;;;;;;28.80;26.50;;;;;;;;;;5059093;28;20199;-84
2021/01/31 01:24:28;;;;;;;26.88;24.95;;;;;;;;;;5076491;28;20212;-84
2021/01/31 01:26:55;;;;;;;28.33;26.23;;;;;;;;;;5076880;28;20211;-84
2021/01/31 01:29:22;;;;;;;27.00;25.20;;;;;;;;;;5076261;28;20238;-84
2021/01/31 01:31:50;;;;;;;27.80;25.70;;;;;;;;;;5076281;28;20718;-84
2021/01/31 01:34:16;;;;;;;26.73;24.83;;;;;;;;;;5076742;28;20187;-85
2021/01/31 01:36:43;;;;;;;27.20;25.25;;;;;;;;;;5076553;28;20210;-84
2021/01/31 01:39:10;;;;;;;27.08;24.98;;;;;;;;;;5076656;28;20192;-84
2021/01/31 01:41:41;;;;;;;27.75;25.75;;;;;;;;;;5076637;28;20195;-84
2021/01/31 01:44:08;;;;;;;27.38;25.48;;;;;;;;;;5076985;28;20219;-84
2021/01/31 01:46:45;;;;;;;26.65;24.75;;;;;;;;;;5076377;28;20201;-85
2021/01/31 01:49:16;;;;;;;28.33;26.13;;;;;;;;;;5076477;28;20553;-85
2021/01/31 01:51:45;;;;;;;28.13;26.02;;;;;;;;;;5076254;28;20195;-84
2021/01/31 01:54:14;;;;;;;28.60;26.50;;;;;;;;;;5076237;28;20215;-85
2021/01/31 01:56:44;;;;;;;27.00;24.88;;;;;;;;;;5076592;28;20202;-84
2021/01/31 01:59:11;;;;;;;27.27;25.33;;;;;;;;;;5076369;28;20265;-84
2021/01/31 02:01:43;;;;;;;27.08;25.13;;;;;;;;;;5076139;28;20207;-85
2021/01/31 02:04:10;;;;;;;26.40;24.50;;;;;;;;;;5075413;28;20226;-84
2021/01/31 02:06:38;;;;;;;27.15;25.35;;;;;;;;;;5075399;28;20261;-84
2021/01/31 02:09:06;;;;;;;26.40;24.50;;;;;;;;;;5075500;28;20267;-84
2021/01/31 02:11:33;;;;;;;27.85;25.95;;;;;;;;;;5075434;28;20183;-84
2021/01/31 02:14:02;;;;;;;27.05;25.15;;;;;;;;;;5075539;28;20327;-84
2021/01/31 02:16:35;;;;;;;27.40;25.50;;;;;;;;;;5057914;28;20206;-84
2021/01/31 02:19:10;;;;;;;27.77;25.67;;;;;;;;;;5075267;28;20285;-84
2021/01/31 02:22:06;;;;;;;28.13;26.08;;;;;;;;;;5075557;28;20187;-84
2021/01/31 02:24:51;;;;;;;27.40;25.10;;;;;;;;;;5075603;28;20277;-84
2021/01/31 02:27:39;;;;;;;28.77;26.67;;;;;;;;;;5041411;28;20249;-84
2021/01/31 02:30:26;;;;;;;27.20;25.30;;;;;;;;;;5042629;28;20196;-84
2021/01/31 02:33:07;;;;;;;27.95;25.95;;;;;;;;;;5051731;28;20195;-84
2021/01/31 02:35:35;;;;;;;28.00;26.10;;;;;;;;;;5075059;28;20190;-84
2021/01/31 02:38:12;;;;;;;28.55;26.45;;;;;;;;;;5075292;28;20551;-84
2021/01/31 02:40:41;;;;;;;27.70;25.60;;;;;;;;;;5075351;28;20198;-85
2021/01/31 02:43:11;;;;;;;28.25;26.15;;;;;;;;;;5074838;28;20256;-84
2021/01/31 02:45:41;;;;;;;27.73;25.73;;;;;;;;;;5075335;28;20188;-84
2021/01/31 02:48:10;;;;;;;27.25;25.15;;;;;;;;;;5075113;28;20211;-84
2021/01/31 02:50:39;;;;;;;27.40;25.40;;;;;;;;;;5075718;28;20272;-84
2021/01/31 02:53:08;;;;;;;26.63;24.70;;;;;;;;;;5074879;28;20541;-84
2021/01/31 02:55:39;;;;;;;27.40;25.40;;;;;;;;;;5074727;28;20187;-84
2021/01/31 02:58:08;;;;;;;27.70;25.70;;;;;;;;;;5074893;28;20654;-84
2021/01/31 03:00:38;;;;;;;28.27;26.20;;;;;;;;;;5074676;28;20579;-84
2021/01/31 03:03:08;;;;;;;27.80;25.77;;;;;;;;;;5074768;28;20570;-84
2021/01/31 03:05:38;;;;;;;28.73;26.52;;;;;;;;;;5074914;28;20202;-84
2021/01/31 03:08:07;;;;;;;28.02;25.95;;;;;;;;;;5074446;28;20261;-84
2021/01/31 03:10:38;;;;;;;27.83;25.65;;;;;;;;;;5074737;28;20188;-84
2021/01/31 03:13:06;;;;;;;27.42;25.35;;;;;;;;;;5074580;28;20214;-84
2021/01/31 03:15:36;;;;;;;27.70;25.70;;;;;;;;;;5073588;28;20198;-84
2021/01/31 03:18:05;;;;;;;28.60;26.40;;;;;;;;;;5074658;28;20192;-84
2021/01/31 03:20:34;;;;;;;27.98;25.77;;;;;;;;;;5074631;28;20215;-84
2021/01/31 03:23:04;;;;;;;26.45;24.45;;;;;;;;;;5074717;28;20618;-85
2021/01/31 03:25:34;;;;;;;27.20;25.00;;;;;;;;;;5074508;28;20215;-84
2021/01/31 03:28:01;;;;;;;25.92;24.17;;;;;;;;;;5074446;28;20219;-84
2021/01/31 03:30:28;;;;;;;27.13;25.02;;;;;;;;;;5074467;28;20202;-84
2021/01/31 03:32:59;;;;;;;26.58;24.65;;;;;;;;;;5074519;28;20191;-84
2021/01/31 03:35:29;;;;;;;26.88;24.90;;;;;;;;;;5074106;28;20198;-84
2021/01/31 03:37:59;;;;;;;27.20;25.20;;;;;;;;;;5074039;28;20191;-84
2021/01/31 03:40:29;;;;;;;28.25;26.15;;;;;;;;;;5074451;28;20191;-84
2021/01/31 03:42:56;;;;;;;27.35;25.35;;;;;;;;;;5074107;28;20200;-84
2021/01/31 03:45:26;;;;;;;27.42;25.42;;;;;;;;;;5074028;28;20207;-84
2021/01/31 03:47:56;;;;;;;27.45;25.40;;;;;;;;;;5073950;28;20187;-85
2021/01/31 03:50:23;;;;;;;26.80;24.70;;;;;;;;;;5074715;28;20555;-85
2021/01/31 03:52:50;;;;;;;27.98;25.77;;;;;;;;;;5074171;28;20191;-84
2021/01/31 03:55:17;;;;;;;28.40;26.20;;;;;;;;;;5073869;28;20207;-84
2021/01/31 03:57:48;;;;;;;27.65;25.75;;;;;;;;;;5073984;28;20650;-84
2021/01/31 04:00:17;;;;;;;28.25;26.25;;;;;;;;;;5073727;28;20188;-84
2021/01/31 04:02:48;;;;;;;27.17;25.20;;;;;;;;;;5073940;28;20648;-84
2021/01/31 04:05:16;;;;;;;27.95;25.95;;;;;;;;;;5074264;28;20621;-84
2021/01/31 04:07:45;;;;;;;28.30;26.10;;;;;;;;;;5073542;28;20246;-84
2021/01/31 04:10:12;;;;;;;27.23;24.85;;;;;;;;;;5056125;28;20233;-84
2021/01/31 04:12:43;;;;;;;27.50;25.48;;;;;;;;;;5074068;28;20199;-84
2021/01/31 04:15:16;;;;;;;28.60;26.30;;;;;;;;;;5056412;28;20265;-84
2021/01/31 04:17:43;;;;;;;29.75;27.55;;;;;;;;;;5073973;28;20260;-84
2021/01/31 04:20:11;;;;;;;29.05;26.75;;;;;;;;;;5073617;28;20404;-84
2021/01/31 04:22:37;;;;;;;27.77;25.65;;;;;;;;;;5073486;28;20188;-84
2021/01/31 04:25:05;;;;;;;27.85;25.77;;;;;;;;;;5073563;28;20698;-84
2021/01/31 04:27:32;;;;;;;28.35;26.25;;;;;;;;;;5075712;28;20191;-84
2021/01/31 04:29:59;;;;;;;28.00;25.92;;;;;;;;;;5060449;28;20195;-85
2021/01/31 04:32:27;;;;;;;28.70;26.52;;;;;;;;;;5077936;28;20187;-84
2021/01/31 04:34:53;;;;;;;28.95;26.48;;;;;;;;;;5077613;28;20191;-84
2021/01/31 04:37:23;;;;;;;29.45;27.08;;;;;;;;;;5077399;28;20211;-84
2021/01/31 04:39:50;;;;;;;26.63;24.70;;;;;;;;;;5078489;28;20551;-84
2021/01/31 04:42:17;;;;;;;29.00;26.30;;;;;;;;;;5077648;28;20241;-84
2021/01/31 04:44:44;;;;;;;29.85;27.30;;;;;;;;;;5077614;28;20211;-84
2021/01/31 04:47:15;;;;;;;29.15;26.85;;;;;;;;;;5077513;28;20195;-84
2021/01/31 04:49:52;;;;;;;28.65;26.45;;;;;;;;;;5077762;28;20279;-84
2021/01/31 04:52:24;;;;;;;30.42;27.95;;;;;;;;;;5077716;28;20261;-85
2021/01/31 04:54:58;;;;;;;31.15;28.67;;;;;;;;;;5077421;28;20285;-85
2021/01/31 04:57:31;;;;;;;30.80;28.33;;;;;;;;;;5077453;28;20183;-84
2021/01/31 04:59:59;;;;;;;29.95;27.63;;;;;;;;;;5078106;28;20210;-85
2021/01/31 05:02:32;;;;;;;30.15;27.73;;;;;;;;;;5077397;28;20191;-85
2021/01/31 05:05:01;;;;;;;29.35;27.05;;;;;;;;;;5077897;28;20226;-85
2021/01/31 05:07:32;;;;;;;31.15;28.55;;;;;;;;;;5076776;28;20211;-85
2021/01/31 05:09:59;;;;;;;30.83;28.42;;;;;;;;;;5059787;28;20207;-84
2021/01/31 05:12:34;;;;;;;30.45;27.95;;;;;;;;;;5076989;28;20241;-85
2021/01/31 05:15:06;;;;;;;29.65;27.33;;;;;;;;;;5076664;28;20201;-85
2021/01/31 05:17:33;;;;;;;29.48;27.13;;;;;;;;;;5059177;28;20286;-84
2021/01/31 05:20:04;;;;;;;29.48;27.05;;;;;;;;;;5076735;28;20188;-85
2021/01/31 05:22:33;;;;;;;30.15;27.65;;;;;;;;;;5059149;28;20206;-85
2021/01/31 05:25:00;;;;;;;31.40;28.80;;;;;;;;;;5076557;28;20226;-85
2021/01/31 05:27:29;;;;;;;31.85;29.05;;;;;;;;;;5076861;28;20279;-85
2021/01/31 05:29:56;;;;;;;30.55;27.98;;;;;;;;;;5076878;28;20518;-85
2021/01/31 05:32:23;;;;;;;30.83;28.42;;;;;;;;;;5076593;28;20192;-85
2021/01/31 05:34:51;;;;;;;31.17;28.48;;;;;;;;;;5076635;28;20215;-84
2021/01/31 05:37:19;;;;;;;29.55;27.05;;;;;;;;;;5076453;28;20192;-85
2021/01/31 05:39:47;;;;;;;31.55;29.00;;;;;;;;;;5075322;28;20195;-85
2021/01/31 05:42:16;;;;;;;30.30;28.00;;;;;;;;;;5076703;28;20184;-84
2021/01/31 05:44:43;;;;;;;30.75;28.25;;;;;;;;;;5076481;28;20277;-85
2021/01/31 05:47:17;;;;;;;30.17;27.83;;;;;;;;;;5076155;28;20195;-85
2021/01/31 05:49:45;;;;;;;30.40;27.90;;;;;;;;;;5075818;28;20207;-85
2021/01/31 05:52:30;;;;;;;29.63;27.20;;;;;;;;;;5076528;28;20211;-84
2021/01/31 05:54:59;;;;;;;30.13;27.65;;;;;;;;;;5076325;28;20241;-85
2021/01/31 05:57:27;;;;;;;30.10;27.70;;;;;;;;;;5076291;28;20241;-85
2021/01/31 05:59:55;;;;;;;31.58;28.85;;;;;;;;;;5076337;28;20191;-85
2021/01/31 06:02:23;;;;;;;30.45;28.15;;;;;;;;;;5075706;28;20656;-84
2021/01/31 06:04:50;;;;;;;30.83;28.33;;;;;;;;;;5058449;28;20402;-85
2021/01/31 06:07:19;;;;;;;30.48;28.02;;;;;;;;;;5076142;28;20196;-85
2021/01/31 06:09:47;;;;;;;32.17;29.55;;;;;;;;;;5076209;28;20199;-85
2021/01/31 06:12:16;;;;;;;30.60;28.10;;;;;;;;;;5075783;28;20203;-85
2021/01/31 06:14:44;;;;;;;32.75;29.80;;;;;;;;;;5058247;28;20209;-85
2021/01/31 06:17:16;;;;;;;29.35;26.95;;;;;;;;;;5076027;28;20192;-85
2021/01/31 06:19:44;;;;;;;30.48;27.92;;;;;;;;;;5075972;28;20198;-85
2021/01/31 06:22:12;;;;;;;32.85;29.75;;;;;;;;;;5075981;28;20589;-85
2021/01/31 06:24:48;;;;;;;34.35;31.10;;;;;;;;;;5075644;28;20221;-84
2021/01/31 06:27:17;;;;;;;32.10;29.40;;;;;;;;;;5075817;28;20209;-84
2021/01/31 06:29:47;;;;;;;31.02;28.33;;;;;;;;;;5075288;28;20200;-84
2021/01/31 06:32:17;;;;;;;30.35;27.85;;;;;;;;;;5075818;28;20183;-84
2021/01/31 06:34:46;;;;;;;30.48;28.00;;;;;;;;;;5075265;28;20206;-85
2021/01/31 06:37:27;;;;;;;28.42;26.13;;;;;;;;;;5075778;28;20569;-85
2021/01/31 06:39:59;;;;;;;30.92;28.45;;;;;;;;;;5075845;28;20183;-85
2021/01/31 06:42:34;;;;;;;31.30;28.60;;;;;;;;;;5076154;28;20581;-85
2021/01/31 06:45:08;;;;;;;30.63;28.00;;;;;;;;;;5074872;28;20722;-85
2021/01/31 06:47:49;;;;;;;32.45;29.80;;;;;;;;;;5057276;28;20614;-85
2021/01/31 06:50:20;;;;;;;31.48;28.98;;;;;;;;;;5057318;28;20196;-84
2021/01/31 06:52:53;;;;;;;31.52;28.80;;;;;;;;;;5074702;28;20633;-84
2021/01/31 06:55:38;;;;;;;30.88;28.30;;;;;;;;;;5074801;28;20195;-84
2021/01/31 06:58:15;;;;;;;30.08;27.67;;;;;;;;;;5062282;28;20649;-84
2021/01/31 07:01:03;;;;;;;31.45;28.85;;;;;;;;;;5074699;28;20635;-84
2021/01/31 07:03:51;;;;;;;29.85;27.42;;;;;;;;;;5074879;28;20564;-84
2021/01/31 07:06:30;;;;;;;30.33;28.02;;;;;;;;;;5041407;28;20212;-81
2021/01/31 07:09:07;;;;;;;30.60;28.30;;;;;;;;;;5074120;28;20235;-81
2021/01/31 07:11:39;;;;;;;30.90;27.92;;;;;;;;;;5074212;28;20195;-81
2021/01/31 07:14:33;;;;;;;29.35;27.02;;;;;;;;;;5074316;28;20191;-81
2021/01/31 07:17:03;;;;;;;28.60;26.50;;;;;;;;;;4992793;28;20289;-81
2021/01/31 07:19:31;;;;;;;30.63;28.02;;;;;;;;;;4992793;28;20202;-81
2021/01/31 07:22:01;;;;;;;32.35;29.48;;;;;;;;;;4976437;28;20630;-81
2021/01/31 07:24:33;;;;;;;32.10;29.70;;;;;;;;;;4992708;28;20214;-81
2021/01/31 07:27:01;;;;;;;31.15;28.85;;;;;;;;;;4992953;28;20233;-81
2021/01/31 07:29:30;;;;;;;32.10;29.60;;;;;;;;;;4992475;28;20218;-81
2021/01/31 07:32:00;;;;;;;32.92;30.17;;;;;;;;;;4992945;28;20240;-81
2021/01/31 07:34:31;;;;;;;32.30;29.60;;;;;;;;;;4992643;28;20210;-81
2021/01/31 07:37:07;;;;;;;32.13;29.27;;;;;;;;;;4992538;28;20225;-80
2021/01/31 07:39:39;;;;;;;32.25;29.65;;;;;;;;;;4991857;28;20205;-80
2021/01/31 07:42:06;;;;;;;31.58;29.08;;;;;;;;;;4992456;28;20710;-80
2021/01/31 07:44:35;;;;;;;31.02;28.58;;;;;;;;;;4992275;28;20245;-80
2021/01/31 07:47:02;;;;;;;32.20;29.70;;;;;;;;;;4992341;28;20758;-81
2021/01/31 07:49:50;;;;;;;31.45;28.83;;;;;;;;;;4991596;28;20719;-82
2021/01/31 07:52:17;;;;;;;30.83;28.27;;;;;;;;;;5020403;28;20207;-81
2021/01/31 07:54:44;;;;;;;32.08;29.50;;;;;;;;;;5074387;28;20194;-82
2021/01/31 07:57:24;;;;;;;31.25;28.67;;;;;;;;;;5073484;28;20192;-82
2021/01/31 07:59:52;;;;;;;30.02;27.55;;;;;;;;;;5073600;28;20653;-83
2021/01/31 08:02:31;;;;;;;31.52;29.02;;;;;;;;;;5072804;28;20194;-80
2021/01/31 08:04:59;;;;;;;30.55;27.95;;;;;;;;;;5073559;28;20222;-79
2021/01/31 08:07:44;;;;;;;31.30;28.80;;;;;;;;;;5073357;28;20210;-79
2021/01/31 08:10:11;;;;;;;30.50;28.05;;;;;;;;;;5073285;28;20191;-80
2021/01/31 08:12:57;;;;;;;32.92;30.05;;;;;;;;;;5073453;28;20191;-84
2021/01/31 08:15:45;;;;;;;30.63;28.10;;;;;;;;;;5073726;28;20537;-84
2021/01/31 08:18:16;;;;;;;31.70;29.20;;;;;;;;;;5067477;28;20248;-80
2021/01/31 08:20:47;;;;;;;32.40;29.75;;;;;;;;;;5073196;28;20195;-80
2021/01/31 08:23:33;;;;;;;31.85;29.25;;;;;;;;;;5073523;28;20240;-79
2021/01/31 08:26:04;;;;;;;31.50;29.05;;;;;;;;;;5073044;28;20321;-79
2021/01/31 08:28:32;;;;;;;31.33;28.63;;;;;;;;;;5073329;28;20219;-79
2021/01/31 08:31:13;;;;;;;32.55;29.73;;;;;;;;;;5073483;28;20188;-79
2021/01/31 08:33:40;;;;;;;34.33;31.50;;;;;;;;;;5073271;28;20183;-79
2021/01/31 08:36:09;;;;;;;33.85;31.05;;;;;;;;;;5073216;28;20191;-80
2021/01/31 08:38:38;;;;;;;49.03;44.28;;;;;;;;;;5072941;28;20196;-79
2021/01/31 08:41:23;;;;;;;53.45;48.13;;;;;;;;;;5073310;28;20199;-79
2021/01/31 08:43:52;;;;;;;42.72;38.97;;;;;;;;;;5072970;28;20188;-78
2021/01/31 08:46:20;;;;;;;32.17;29.73;;;;;;;;;;5072892;28;20188;-79
2021/01/31 08:48:50;;;;;;;31.67;29.27;;;;;;;;;;5073187;28;20188;-79
2021/01/31 08:51:22;;;;;;;37.80;34.90;;;;;;;;;;5072704;28;20230;-77
2021/01/31 08:54:03;;;;;;;32.72;30.20;;;;;;;;;;5072947;28;20188;-79
2021/01/31 08:56:32;;;;;;;31.98;29.13;;;;;;;;;;5072935;28;20191;-79
2021/01/31 08:58:59;;;;;;;28.65;26.40;;;;;;;;;;5073154;28;20241;-79
2021/01/31 09:01:27;;;;;;;29.58;27.38;;;;;;;;;;5073247;28;20187;-79
2021/01/31 09:03:54;;;;;;;31.70;29.40;;;;;;;;;;5072715;28;20192;-79
2021/01/31 09:06:22;;;;;;;30.55;28.30;;;;;;;;;;5073113;28;20198;-80
2021/01/31 09:08:53;;;;;;;32.00;29.40;;;;;;;;;;5072749;28;20713;-79
2021/01/31 09:11:21;;;;;;;32.50;30.00;;;;;;;;;;5073028;28;20643;-79
2021/01/31 09:13:48;;;;;;;29.98;27.73;;;;;;;;;;5075454;28;20192;-79
2021/01/31 09:16:22;;;;;;;30.90;28.60;;;;;;;;;;5076299;28;20660;-78
2021/01/31 09:18:49;;;;;;;25.33;23.58;;;;;;;;;;5076707;28;20187;-78
2021/01/31 09:21:21;;;;;;;32.03;29.52;;;;;;;;;;5076612;28;20210;-79
2021/01/31 09:23:49;;;;;;;33.78;30.80;;;;;;;;;;5076521;28;20282;-80
2021/01/31 09:26:16;;;;;;;28.02;26.08;;;;;;;;;;5076483;28;20191;-79
2021/01/31 09:28:43;;;;;;;37.42;34.33;;;;;;;;;;5075934;28;20223;-79
2021/01/31 09:31:10;;;;;;;29.42;27.20;;;;;;;;;;5076510;28;20516;-82
2021/01/31 09:33:40;;;;;;;30.17;27.90;;;;;;;;;;5076064;28;20198;-77
2021/01/31 09:36:18;;;;;;;31.00;28.73;;;;;;;;;;5076064;28;20198;-80
2021/01/31 09:38:46;;;;;;;35.25;32.75;;;;;;;;;;5075956;28;20191;-80
2021/01/31 09:41:15;;;;;;;30.95;28.75;;;;;;;;;;5075909;28;20214;-79
2021/01/31 09:43:44;;;;;;;32.00;29.65;;;;;;;;;;5058086;28;20203;-79
2021/01/31 09:46:13;;;;;;;29.75;27.63;;;;;;;;;;5075840;28;20661;-79
2021/01/31 09:48:40;;;;;;;30.23;27.98;;;;;;;;;;5076658;28;20578;-82
2021/01/31 09:51:08;;;;;;;32.33;29.50;;;;;;;;;;5078223;28;20253;-82
2021/01/31 09:53:40;;;;;;;28.85;26.63;;;;;;;;;;5077315;28;20195;-83
2021/01/31 09:56:08;;;;;;;30.92;28.52;;;;;;;;;;5076672;28;20253;-80
2021/01/31 09:58:43;;;;;;;24.73;23.10;;;;;;;;;;5075732;28;20193;-80
2021/01/31 10:01:11;;;;;;;29.50;27.40;;;;;;;;;;5075916;28;20633;-80
2021/01/31 10:03:38;;;;;;;30.13;28.02;;;;;;;;;;5075808;28;20194;-80
2021/01/31 10:06:07;;;;;;;38.58;35.67;;;;;;;;;;5075633;28;20229;-80
2021/01/31 10:08:34;;;;;;;44.17;40.10;;;;;;;;;;5075354;28;20352;-79
2021/01/31 10:11:15;;;;;;;41.65;38.28;;;;;;;;;;5075805;28;20187;-79
2021/01/31 10:13:44;;;;;;;31.70;29.40;;;;;;;;;;5074589;28;20199;-81
2021/01/31 10:16:16;;;;;;;39.17;36.33;;;;;;;;;;5075530;28;20619;-81
2021/01/31 10:18:43;;;;;;;30.30;28.25;;;;;;;;;;5075586;28;20188;-78
2021/01/31 10:21:14;;;;;;;28.52;26.45;;;;;;;;;;5075312;28;20213;-80
2021/01/31 10:23:41;;;;;;;30.55;28.35;;;;;;;;;;5075123;28;20199;-79
2021/01/31 10:26:12;;;;;;;32.28;29.88;;;;;;;;;;5074179;28;20625;-78
2021/01/31 10:28:44;;;;;;;31.48;29.10;;;;;;;;;;5074446;28;20227;-79
2021/01/31 10:31:24;;;;;;;39.13;36.42;;;;;;;;;;5075288;28;20199;-79
2021/01/31 10:33:52;;;;;;;30.70;28.42;;;;;;;;;;5074945;28;20192;-78
2021/01/31 10:36:24;;;;;;;27.60;25.70;;;;;;;;;;5074922;28;20634;-78
2021/01/31 10:38:52;;;;;;;34.17;31.23;;;;;;;;;;5075091;28;20260;-79
2021/01/31 10:41:19;;;;;;;34.33;31.38;;;;;;;;;;5077297;28;20183;-78
2021/01/31 10:43:54;;;;;;;29.40;27.30;;;;;;;;;;5085467;28;20198;-79
2021/01/31 10:46:20;;;;;;;28.73;26.63;;;;;;;;;;5079268;28;20194;-78
2021/01/31 10:48:48;;;;;;;29.67;27.45;;;;;;;;;;5084848;28;20187;-78
2021/01/31 10:51:15;;;;;;;31.48;28.90;;;;;;;;;;5081041;28;20195;-80
2021/01/31 10:53:42;;;;;;;32.50;30.00;;;;;;;;;;5084186;28;20244;-79
2021/01/31 10:56:09;;;;;;;30.20;27.90;;;;;;;;;;5082341;28;20192;-78
2021/01/31 10:58:35;;;;;;;29.55;27.33;;;;;;;;;;5087397;28;20194;-80
2021/01/31 11:01:02;;;;;;;32.60;30.30;;;;;;;;;;5095068;28;20202;-80
2021/01/31 11:03:29;;;;;;;28.80;26.60;;;;;;;;;;5094575;28;20191;-79
2021/01/31 11:05:57;;;;;;;29.63;27.27;;;;;;;;;;5091606;28;20272;-79
2021/01/31 11:08:25;;;;;;;28.25;26.17;;;;;;;;;;5093803;28;20712;-79
2021/01/31 11:10:52;;;;;;;30.63;28.33;;;;;;;;;;5093851;28;20198;-79
2021/01/31 11:13:19;;;;;;;29.23;27.13;;;;;;;;;;5093858;28;20240;-80
2021/01/31 11:15:46;;;;;;;27.52;25.63;;;;;;;;;;5093906;28;20663;-80
2021/01/31 11:18:13;;;;;;;28.45;26.27;;;;;;;;;;5094123;28;20190;-80
2021/01/31 11:20:40;;;;;;;27.40;25.50;;;;;;;;;;5094253;28;20252;-79
2021/01/31 11:23:07;;;;;;;28.73;26.58;;;;;;;;;;5094220;28;20235;-81
2021/01/31 11:25:34;;;;;;;27.40;25.08;;;;;;;;;;5092288;28;20233;-84
2021/01/31 11:28:01;;;;;;;28.00;25.92;;;;;;;;;;5092898;28;20803;-83
2021/01/31 11:30:29;;;;;;;26.90;25.10;;;;;;;;;;5093456;28;20289;-83
2021/01/31 11:32:56;;;;;;;27.27;25.48;;;;;;;;;;5076001;28;20281;-80
2021/01/31 11:35:23;;;;;;;26.30;24.45;;;;;;;;;;5093869;28;20191;-80
2021/01/31 11:37:50;;;;;;;28.65;26.67;;;;;;;;;;5093014;28;20236;-79
2021/01/31 11:40:17;;;;;;;27.20;25.30;;;;;;;;;;5093390;28;20188;-80
2021/01/31 11:42:51;;;;;;;27.58;25.58;;;;;;;;;;5093344;28;20693;-78
2021/01/31 11:45:18;;;;;;;28.63;26.52;;;;;;;;;;5093101;28;20678;-81
2021/01/31 11:47:45;;;;;;;27.20;25.40;;;;;;;;;;5093601;28;20191;-80
2021/01/31 11:50:13;;;;;;;27.85;25.95;;;;;;;;;;5094029;28;20183;-83
2021/01/31 11:52:40;;;;;;;26.63;24.92;;;;;;;;;;5094240;28;20530;-81
2021/01/31 11:55:08;;;;;;;27.58;25.80;;;;;;;;;;5094168;28;20582;-81
2021/01/31 11:57:36;;;;;;;27.80;26.00;;;;;;;;;;5093899;28;20198;-81
2021/01/31 12:00:04;;;;;;;25.42;23.73;;;;;;;;;;5093890;28;20183;-84
2021/01/31 12:02:31;;;;;;;28.55;26.65;;;;;;;;;;5094647;28;20191;-84
2021/01/31 12:04:58;;;;;;;28.73;26.73;;;;;;;;;;5076006;28;20218;-84
2021/01/31 12:07:25;;;;;;;28.73;26.70;;;;;;;;;;5093945;28;20193;-84
2021/01/31 12:09:52;;;;;;;31.17;28.77;;;;;;;;;;5093792;28;20272;-83
2021/01/31 12:12:19;;;;;;;29.58;27.23;;;;;;;;;;5094009;28;20237;-84
2021/01/31 12:14:47;;;;;;;32.63;30.05;;;;;;;;;;5093743;28;20247;-84
2021/01/31 12:17:13;;;;;;;32.38;29.98;;;;;;;;;;5094067;28;20652;-83
2021/01/31 12:19:40;;;;;;;31.30;28.90;;;;;;;;;;5093124;28;20191;-82
2021/01/31 12:22:07;;;;;;;30.33;28.13;;;;;;;;;;5093942;28;20244;-82
2021/01/31 12:24:34;;;;;;;39.03;35.53;;;;;;;;;;5093669;28;20222;-83
2021/01/31 12:27:01;;;;;;;32.05;29.65;;;;;;;;;;5093685;28;20570;-83
2021/01/31 12:29:27;;;;;;;42.30;39.10;;;;;;;;;;5093375;28;20191;-83
2021/01/31 12:31:55;;;;;;;31.60;29.20;;;;;;;;;;5093634;28;20195;-83
2021/01/31 12:34:22;;;;;;;31.48;29.27;;;;;;;;;;5093522;28;20528;-83
2021/01/31 12:36:49;;;;;;;33.80;31.08;;;;;;;;;;5093538;28;20211;-82
2021/01/31 12:39:16;;;;;;;32.40;30.00;;;;;;;;;;5093737;28;20221;-82
2021/01/31 12:41:43;;;;;;;29.95;27.70;;;;;;;;;;5093515;28;20207;-81
2021/01/31 12:44:10;;;;;;;32.22;29.63;;;;;;;;;;5093546;28;20198;-83
2021/01/31 12:46:37;;;;;;;32.30;29.80;;;;;;;;;;5093197;28;20209;-83
2021/01/31 12:49:04;;;;;;;32.05;29.55;;;;;;;;;;5096609;28;20193;-83
2021/01/31 12:51:31;;;;;;;31.65;29.17;;;;;;;;;;5097515;28;20268;-82
2021/01/31 12:53:59;;;;;;;31.23;28.80;;;;;;;;;;5097545;28;20187;-83
2021/01/31 12:56:26;;;;;;;30.83;28.35;;;;;;;;;;5097451;28;20206;-83
2021/01/31 12:58:53;;;;;;;31.02;28.58;;;;;;;;;;5096547;28;20191;-82
2021/01/31 13:01:20;;;;;;;32.88;29.90;;;;;;;;;;5097209;28;20227;-84
2021/01/31 13:03:47;;;;;;;30.60;28.25;;;;;;;;;;5097249;28;20194;-83
2021/01/31 13:06:14;;;;;;;31.38;28.88;;;;;;;;;;5097285;28;20628;-83
2021/01/31 13:08:41;;;;;;;30.33;28.10;;;;;;;;;;5096707;28;20651;-83
2021/01/31 13:11:08;;;;;;;33.42;31.02;;;;;;;;;;5097210;28;20195;-83
2021/01/31 13:13:35;;;;;;;31.80;29.45;;;;;;;;;;5097088;28;20187;-83
2021/01/31 13:16:02;;;;;;;29.95;27.58;;;;;;;;;;5096743;28;20202;-83
2021/01/31 13:18:29;;;;;;;31.85;29.50;;;;;;;;;;5097016;28;20194;-83
2021/01/31 13:20:56;;;;;;;31.25;28.85;;;;;;;;;;5096889;28;20187;-83
2021/01/31 13:23:23;;;;;;;30.50;28.23;;;;;;;;;;5096617;28;20191;-83
2021/01/31 13:25:50;;;;;;;30.00;27.90;;;;;;;;;;5096559;28;20229;-83
2021/01/31 13:28:17;;;;;;;31.70;29.17;;;;;;;;;;5096629;28;20267;-83
2021/01/31 13:30:44;;;;;;;32.35;30.05;;;;;;;;;;5097379;28;20607;-83
2021/01/31 13:33:12;;;;;;;31.58;29.23;;;;;;;;;;5097025;28;20190;-83
2021/01/31 13:35:39;;;;;;;30.55;28.05;;;;;;;;;;5096249;28;20256;-83
2021/01/31 13:38:06;;;;;;;31.00;28.60;;;;;;;;;;5096896;28;20191;-83
2021/01/31 13:40:33;;;;;;;29.08;26.75;;;;;;;;;;5096288;28;20191;-83
2021/01/31 13:43:00;;;;;;;30.38;27.98;;;;;;;;;;5096496;28;20194;-83
2021/01/31 13:45:27;;;;;;;29.60;27.45;;;;;;;;;;5096370;28;20672;-82
2021/01/31 13:47:54;;;;;;;33.47;30.73;;;;;;;;;;5096368;28;20191;-83
2021/01/31 13:50:23;;;;;;;30.27;27.92;;;;;;;;;;5096210;28;20198;-83
2021/01/31 13:52:49;;;;;;;28.58;26.50;;;;;;;;;;5096139;28;20277;-83
2021/01/31 13:55:17;;;;;;;30.60;28.20;;;;;;;;;;5096165;28;20629;-84
2021/01/31 13:57:45;;;;;;;29.48;27.38;;;;;;;;;;5096012;28;20198;-83
2021/01/31 14:00:14;;;;;;;30.33;28.02;;;;;;;;;;5094978;28;20202;-83
2021/01/31 14:02:41;;;;;;;30.48;27.98;;;;;;;;;;5096054;28;20244;-83
2021/01/31 14:05:08;;;;;;;31.52;29.00;;;;;;;;;;5078097;28;20226;-84
2021/01/31 14:07:35;;;;;;;31.00;28.65;;;;;;;;;;5095458;28;20191;-82
2021/01/31 14:10:02;;;;;;;29.75;27.27;;;;;;;;;;5095785;28;20191;-83
2021/01/31 14:12:29;;;;;;;30.30;27.88;;;;;;;;;;5095626;28;20213;-83
2021/01/31 14:14:58;;;;;;;29.10;26.90;;;;;;;;;;5095855;28;20621;-81
2021/01/31 14:17:25;;;;;;;31.27;28.65;;;;;;;;;;5095416;28;20263;-83
2021/01/31 14:19:52;;;;;;;29.92;27.42;;;;;;;;;;5095846;28;20202;-83
2021/01/31 14:22:19;;;;;;;30.25;27.95;;;;;;;;;;5095929;28;20636;-83
2021/01/31 14:24:46;;;;;;;29.48;27.27;;;;;;;;;;5095531;28;20583;-82
2021/01/31 14:27:13;;;;;;;31.40;28.95;;;;;;;;;;5095372;28;20229;-82
2021/01/31 14:29:40;;;;;;;30.70;28.30;;;;;;;;;;5095200;28;20202;-82